createdAt,value
2024-02-19T00:02:36.508Z,-0.06
2024-02-19T00:06:38.213Z,-0.08
2024-02-19T00:10:40.692Z,0.11
2024-02-19T00:14:43.608Z,0.16
2024-02-19T00:18:46.167Z,0.20
2024-02-19T00:22:48.337Z,0.11
2024-02-19T00:26:50.408Z,0.09
2024-02-19T00:30:52.457Z,0.10
2024-02-19T00:34:54.773Z,0.13
2024-02-19T00:38:56.884Z,0.24
2024-02-19T00:42:58.976Z,0.10
2024-02-19T00:47:01.962Z,0.15
2024-02-19T00:51:04.749Z,0.15
2024-02-19T00:55:07.864Z,0.17
2024-02-19T00:59:10.025Z,0.17
2024-02-19T01:03:12.490Z,0.09
2024-02-19T01:07:16.780Z,0.12
2024-02-19T01:11:19.253Z,0.17
2024-02-19T01:15:21.387Z,0.08
2024-02-19T01:19:23.604Z,0.17
2024-02-19T01:23:26.026Z,0.16
2024-02-19T01:27:29.860Z,0.14
2024-02-19T01:31:32.943Z,0.11
2024-02-19T01:35:36.587Z,0.16
2024-02-19T01:39:38.761Z,0.02
2024-02-19T01:43:40.951Z,0.12
2024-02-19T01:47:43.073Z,0.20
2024-02-19T01:51:45.424Z,0.16
2024-02-19T01:55:49.606Z,0.12
2024-02-19T01:59:51.892Z,0.11
2024-02-19T02:03:55.566Z,0.07
2024-02-19T02:07:58.617Z,-0.02
2024-02-19T02:12:00.804Z,-0.13
2024-02-19T02:16:04.035Z,-0.18
2024-02-19T02:20:07.216Z,-0.15
2024-02-19T02:24:09.547Z,-0.28
2024-02-19T02:28:11.603Z,-0.28
2024-02-19T02:32:13.761Z,-0.18
2024-02-19T02:36:16.426Z,-0.29
2024-02-19T02:40:18.804Z,-0.28
2024-02-19T02:44:21.069Z,-0.32
2024-02-19T02:48:23.820Z,-0.45
2024-02-19T02:52:27.527Z,-0.36
2024-02-19T02:56:30.592Z,-0.38
2024-02-19T03:00:32.958Z,-0.42
2024-02-19T03:04:35.454Z,-0.35
2024-02-19T03:08:37.822Z,-0.36
2024-02-19T03:12:41.128Z,-0.28
2024-02-19T03:16:43.672Z,-0.26
2024-02-19T03:20:45.842Z,-0.09
2024-02-19T03:24:47.993Z,-0.02
2024-02-19T03:28:50.314Z,-0.02
2024-02-19T03:32:52.572Z,0.00
2024-02-19T03:36:54.699Z,-0.11
2024-02-19T03:40:56.845Z,0.03
2024-02-19T03:44:59.008Z,0.07
2024-02-19T03:49:01.485Z,0.05
2024-02-19T03:53:03.836Z,0.08
2024-02-19T03:57:05.972Z,0.03
2024-02-19T04:01:08.694Z,0.04
2024-02-19T04:05:11.058Z,0.09
2024-02-19T04:09:13.208Z,0.03
2024-02-19T04:13:15.353Z,0.00
2024-02-19T04:17:18.621Z,-0.01
2024-02-19T04:21:20.717Z,0.05
2024-02-19T04:25:23.001Z,-0.13
2024-02-19T04:29:25.912Z,-0.13
2024-02-19T04:33:28.109Z,-0.05
2024-02-19T04:37:31.693Z,-0.09
2024-02-19T04:41:33.817Z,-0.06
2024-02-19T04:45:35.882Z,-0.04
2024-02-19T04:49:38.349Z,-0.13
2024-02-19T04:53:40.482Z,-0.17
2024-02-19T04:57:42.521Z,-0.11
2024-02-19T05:01:44.701Z,-0.09
2024-02-19T05:05:46.965Z,-0.08
2024-02-19T05:09:49.162Z,-0.12
2024-02-19T05:13:51.361Z,-0.07
2024-02-19T05:17:54.464Z,-0.22
2024-02-19T05:21:56.651Z,-0.13
2024-02-19T05:25:59.594Z,-0.16
2024-02-19T05:30:02.164Z,-0.11
2024-02-19T05:34:05.798Z,-0.13
2024-02-19T05:38:07.893Z,-0.14
2024-02-19T05:42:10.329Z,-0.12
2024-02-19T05:46:12.523Z,-0.08
2024-02-19T05:50:14.845Z,-0.15
2024-02-19T05:58:46.092Z,-0.08
2024-02-19T06:02:48.397Z,0.02
2024-02-19T06:06:52.285Z,0.02
2024-02-19T06:10:55.532Z,0.02
2024-02-19T06:14:57.636Z,0.07
2024-02-19T06:19:03.101Z,0.04
2024-02-19T06:23:05.313Z,-0.03
2024-02-19T06:27:10.041Z,-0.15
2024-02-19T06:31:12.404Z,-0.03
2024-02-19T06:35:14.635Z,0.03
2024-02-19T06:39:16.799Z,0.14
2024-02-19T06:43:20.807Z,0.12
2024-02-19T06:47:22.886Z,0.15
2024-02-19T06:51:25.141Z,0.12
2024-02-19T06:55:27.316Z,0.13
2024-02-19T06:59:31.331Z,0.28
2024-02-19T07:03:33.464Z,0.51
2024-02-19T07:07:36.192Z,0.51
2024-02-19T07:11:39.819Z,0.62
2024-02-19T07:15:42.127Z,0.84
2024-02-19T07:19:44.461Z,1.02
2024-02-19T07:23:46.638Z,0.92
2024-02-19T07:27:48.979Z,0.87
2024-02-19T07:31:52.434Z,0.90
2024-02-19T07:35:54.644Z,1.07
2024-02-19T07:39:56.799Z,1.32
2024-02-19T07:43:59.132Z,1.17
2024-02-19T07:48:01.948Z,1.11
2024-02-19T07:52:04.419Z,1.37
2024-02-19T07:56:08.343Z,1.48
2024-02-19T08:00:10.946Z,1.62
2024-02-19T08:04:13.065Z,1.56
2024-02-19T08:08:16.749Z,1.72
2024-02-19T08:12:19.170Z,1.68
2024-02-19T08:16:21.337Z,1.65
2024-02-19T08:20:23.558Z,1.97
2024-02-19T08:24:26.520Z,1.98
2024-02-19T08:28:28.731Z,1.75
2024-02-19T08:32:31.641Z,1.78
2024-02-19T08:36:34.445Z,1.83
2024-02-19T08:40:36.726Z,1.94
2024-02-19T08:44:39.440Z,2.03
2024-02-19T08:48:42.369Z,2.11
2024-02-19T08:52:44.518Z,2.11
2024-02-19T08:56:46.550Z,2.48
2024-02-19T09:00:49.328Z,2.44
2024-02-19T09:04:51.648Z,2.23
2024-02-19T09:08:54.105Z,2.44
2024-02-19T09:12:56.250Z,2.58
2024-02-19T09:16:58.311Z,2.46
2024-02-19T09:21:00.667Z,2.70
2024-02-19T09:25:02.793Z,2.75
2024-02-19T09:29:04.960Z,2.79
2024-02-19T09:33:07.397Z,2.40
2024-02-19T09:37:09.604Z,2.82
2024-02-19T09:41:11.798Z,3.18
2024-02-19T09:45:14.282Z,3.20
2024-02-19T09:49:19.026Z,3.21
2024-02-19T09:53:28.774Z,3.47
2024-02-19T09:57:30.882Z,3.59
2024-02-19T10:01:32.986Z,3.13
2024-02-19T10:05:35.690Z,2.84
2024-02-19T10:09:37.852Z,2.63
2024-02-19T10:13:43.614Z,2.50
2024-02-19T10:17:45.737Z,2.47
2024-02-19T10:21:49.615Z,2.64
2024-02-19T10:25:52.108Z,2.55
2024-02-19T10:29:54.258Z,2.26
2024-02-19T10:33:56.612Z,2.34
2024-02-19T10:38:01.008Z,2.31
2024-02-19T10:42:03.852Z,2.21
2024-02-19T10:46:06.209Z,2.35
2024-02-19T10:50:09.678Z,2.34
2024-02-19T10:54:11.866Z,2.36
2024-02-19T10:58:18.106Z,2.06
2024-02-19T11:02:21.436Z,2.15
2024-02-19T11:06:25.011Z,2.28
2024-02-19T11:10:44.746Z,2.20
2024-02-19T11:14:51.361Z,1.94
2024-02-19T11:18:55.770Z,1.99
2024-02-19T11:23:00.093Z,2.02
2024-02-19T11:27:05.676Z,2.10
2024-02-19T11:31:14.673Z,2.10
2024-02-19T11:35:17.024Z,2.10
2024-02-19T11:39:19.180Z,2.10
2024-02-19T11:43:21.877Z,1.96
2024-02-19T11:47:27.093Z,2.04
2024-02-19T11:51:29.849Z,2.06
2024-02-19T11:55:34.411Z,2.02
2024-02-19T11:59:37.311Z,2.11
2024-02-19T12:03:42.123Z,2.20
2024-02-19T12:07:44.873Z,2.02
2024-02-19T12:11:47.838Z,2.13
2024-02-19T12:15:51.203Z,2.15
2024-02-19T12:19:56.755Z,2.14
2024-02-19T12:24:01.891Z,2.12
2024-02-19T12:28:04.495Z,1.91
2024-02-19T12:32:07.227Z,1.94
2024-02-19T12:36:13.759Z,2.03
2024-02-19T12:40:16.205Z,2.14
2024-02-19T12:44:18.406Z,2.12
2024-02-19T12:48:20.856Z,2.11
2024-02-19T12:52:28.210Z,2.10
2024-02-19T12:56:30.658Z,2.22
2024-02-19T13:00:34.017Z,2.17
2024-02-19T13:04:36.356Z,2.24
2024-02-19T13:08:39.574Z,2.24
2024-02-19T13:12:41.852Z,2.13
2024-02-19T13:16:45.824Z,2.05
2024-02-19T13:20:49.508Z,2.12
2024-02-19T13:24:51.613Z,2.18
2024-02-19T13:28:53.692Z,2.23
2024-02-19T13:32:56.013Z,2.17
2024-02-19T13:36:58.221Z,2.16
2024-02-19T13:41:04.150Z,2.31
2024-02-19T13:45:10.446Z,2.24
2024-02-19T13:49:12.898Z,2.22
2024-02-19T13:53:15.160Z,2.22
2024-02-19T13:57:17.375Z,2.33
2024-02-19T14:01:20.009Z,2.42
2024-02-19T14:05:22.138Z,2.38
2024-02-19T14:09:24.236Z,2.36
2024-02-19T14:13:27.125Z,2.46
2024-02-19T14:17:29.264Z,2.48
2024-02-19T14:21:33.097Z,2.35
2024-02-19T14:25:36.746Z,2.35
2024-02-19T14:29:39.266Z,2.48
2024-02-19T14:33:41.485Z,2.42
2024-02-19T14:37:45.159Z,2.55
2024-02-19T14:41:48.721Z,2.53
2024-02-19T14:45:50.965Z,2.43
2024-02-19T14:49:53.325Z,2.58
2024-02-19T14:53:56.190Z,2.51
2024-02-19T14:57:58.615Z,2.55
2024-02-19T15:02:00.872Z,2.54
2024-02-19T15:06:06.277Z,2.54
2024-02-19T15:10:09.095Z,2.59
2024-02-19T15:14:11.335Z,2.56
2024-02-19T15:18:16.207Z,2.54
2024-02-19T15:22:18.954Z,2.69
2024-02-19T15:26:21.154Z,2.64
2024-02-19T15:30:23.335Z,2.70
2024-02-19T15:34:25.486Z,2.66
2024-02-19T15:38:27.721Z,2.79
2024-02-19T15:42:29.807Z,2.82
2024-02-19T15:46:32.502Z,2.80
2024-02-19T15:50:34.601Z,2.84
2024-02-19T15:54:40.609Z,2.76
2024-02-19T15:58:43.947Z,2.80
2024-02-19T16:02:46.111Z,2.92
2024-02-19T16:06:51.146Z,2.81
2024-02-19T16:10:54.335Z,2.95
2024-02-19T16:14:56.430Z,3.06
2024-02-19T16:18:58.938Z,2.84
2024-02-19T16:23:01.116Z,2.99
2024-02-19T16:27:05.091Z,3.12
2024-02-19T16:31:07.410Z,3.24
2024-02-19T16:35:10.344Z,3.26
2024-02-19T16:39:12.891Z,3.31
2024-02-19T16:43:15.104Z,3.24
2024-02-19T16:47:17.218Z,3.30
2024-02-19T16:51:19.452Z,3.34
2024-02-19T16:55:21.529Z,3.34
2024-02-19T16:59:23.731Z,3.39
2024-02-19T17:03:26.404Z,3.45
2024-02-19T17:07:30.893Z,3.41
2024-02-19T17:11:35.948Z,3.44
2024-02-19T17:15:38.366Z,3.51
2024-02-19T17:19:40.697Z,3.55
2024-02-19T17:23:45.343Z,3.59
2024-02-19T17:27:47.652Z,3.70
2024-02-19T17:31:50.696Z,3.85
2024-02-19T17:35:53.923Z,3.89
2024-02-19T17:39:57.088Z,3.80
2024-02-19T17:43:59.166Z,4.02
2024-02-19T17:48:01.415Z,4.04
2024-02-19T17:52:03.883Z,4.13
2024-02-19T17:56:06.314Z,4.25
2024-02-19T18:00:11.053Z,4.31
2024-02-19T18:04:18.752Z,4.29
2024-02-19T18:08:21.278Z,4.35
2024-02-19T18:12:23.475Z,4.44
2024-02-19T18:16:25.664Z,4.61
2024-02-19T18:20:28.242Z,4.86
2024-02-19T18:24:29.963Z,5.03
2024-02-19T18:28:36.017Z,5.13
2024-02-19T18:32:41.904Z,5.25
2024-02-19T18:36:44.356Z,5.40
2024-02-19T18:40:46.465Z,5.29
2024-02-19T18:44:48.504Z,5.19
2024-02-19T18:48:53.859Z,5.27
2024-02-19T18:52:56.903Z,5.27
2024-02-19T18:57:02.205Z,5.21
2024-02-19T19:01:05.557Z,5.26
2024-02-19T19:05:08.065Z,5.26
2024-02-19T19:09:11.512Z,5.29
2024-02-19T19:13:13.667Z,5.29
2024-02-19T19:17:16.013Z,5.39
2024-02-19T19:21:18.243Z,5.40
2024-02-19T19:25:20.689Z,5.36
2024-02-19T19:29:22.884Z,5.30
2024-02-19T19:33:24.740Z,5.36
2024-02-19T19:37:27.064Z,5.26
2024-02-19T19:41:29.382Z,5.23
2024-02-19T19:45:31.451Z,5.14
2024-02-19T19:49:33.627Z,5.20
2024-02-19T19:53:36.230Z,5.04
2024-02-19T19:57:39.082Z,5.05
2024-02-19T20:01:41.322Z,4.95
2024-02-19T20:05:45.181Z,4.96
2024-02-19T20:09:47.872Z,4.89
2024-02-19T20:13:51.257Z,4.83
2024-02-19T20:17:53.637Z,4.83
2024-02-19T20:21:55.851Z,4.75
2024-02-19T20:25:59.252Z,4.75
2024-02-19T20:30:01.385Z,4.72
2024-02-19T20:34:03.978Z,4.72
2024-02-19T20:38:06.393Z,4.74
2024-02-19T20:42:11.682Z,4.66
2024-02-19T20:46:14.134Z,4.67
2024-02-19T20:50:16.256Z,4.65
2024-02-19T20:54:18.602Z,4.66
2024-02-19T20:58:20.739Z,4.58
2024-02-19T21:02:23.002Z,4.61
2024-02-19T21:06:25.290Z,4.71
2024-02-19T21:10:28.814Z,4.53
2024-02-19T21:14:31.467Z,4.49
2024-02-19T21:18:42.215Z,4.61
2024-02-19T21:22:51.709Z,4.63
2024-02-19T21:26:56.400Z,4.57
2024-02-19T21:31:00.105Z,4.52
2024-02-19T21:35:02.292Z,4.57
2024-02-19T21:39:06.702Z,4.46
2024-02-19T21:43:09.060Z,4.52
2024-02-19T21:47:13.538Z,4.55
2024-02-19T21:51:15.688Z,4.48
2024-02-19T21:55:18.274Z,4.39
2024-02-19T21:59:20.482Z,4.42
2024-02-19T22:03:23.974Z,4.46
2024-02-19T22:07:26.507Z,4.50
2024-02-19T22:11:29.788Z,4.45
2024-02-19T22:15:32.200Z,4.52
2024-02-19T22:19:34.386Z,4.48
2024-02-19T22:23:36.487Z,4.51
2024-02-19T22:27:38.588Z,4.50
2024-02-19T22:31:40.727Z,4.48
2024-02-19T22:35:42.893Z,4.39
2024-02-19T22:39:45.856Z,4.50
2024-02-19T22:43:48.111Z,4.49
2024-02-19T22:47:50.286Z,4.45
2024-02-19T22:51:52.464Z,4.53
2024-02-19T22:55:54.909Z,4.50
2024-02-19T22:59:57.214Z,4.48
2024-02-19T23:04:00.635Z,4.37
2024-02-19T23:08:03.092Z,4.45
2024-02-19T23:12:06.327Z,4.39
2024-02-19T23:16:09.459Z,4.41
2024-02-19T23:20:11.964Z,4.38
2024-02-19T23:24:14.111Z,4.33
2024-02-19T23:28:16.396Z,4.28
2024-02-19T23:32:18.867Z,4.20
2024-02-19T23:36:21.786Z,4.31
2024-02-19T23:40:23.934Z,4.40
2024-02-19T23:44:25.627Z,4.34
2024-02-19T23:48:27.862Z,4.41
2024-02-19T23:52:30.180Z,4.44
2024-02-19T23:56:32.277Z,4.43
